Time;durP1;ratioP1;P1;durP2;ratioP2;P2;SDS_P1;SDS_P2;PMS_P1;PMS_P2;Temp;Humidity;BMP_temperature;BMP_pressure;BME280_temperature;BME280_humidity;BME280_pressure;Samples;Min_cycle;Max_cycle;Signal;HPM_P1;HPM_P2
2022/07/04 00:00:06;;;;;;;5.25;3.20;;;31.80;1.00;;;;;;5153183;27;20035;-59
2022/07/04 00:02:32;;;;;;;7.72;3.13;;;31.80;1.00;;;;;;5134039;27;20047;-59
2022/07/04 00:04:58;;;;;;;3.03;2.75;;;31.80;1.00;;;;;;5145692;27;20149;-59
2022/07/04 00:07:24;;;;;;;3.78;2.85;;;31.90;1.00;;;;;;5149681;27;20042;-59
2022/07/04 00:09:49;;;;;;;3.92;2.97;;;31.90;1.00;;;;;;5145396;27;20024;-59
2022/07/04 00:12:15;;;;;;;4.50;3.08;;;31.90;1.00;;;;;;5147176;27;20095;-60
2022/07/04 00:14:41;;;;;;;5.53;3.33;;;31.90;1.00;;;;;;5151553;27;20035;-59
2022/07/04 00:17:07;;;;;;;5.30;3.50;;;32.00;1.00;;;;;;5151943;27;20037;-59
2022/07/04 00:19:32;;;;;;;10.88;3.13;;;31.80;1.00;;;;;;5136840;27;20106;-59
2022/07/04 00:21:58;;;;;;;4.78;3.60;;;31.90;1.00;;;;;;5151818;27;20035;-59
2022/07/04 00:24:24;;;;;;;4.38;4.00;;;32.10;1.00;;;;;;5152866;27;20035;-59
2022/07/04 00:26:49;;;;;;;6.18;3.58;;;32.10;1.00;;;;;;5151509;27;20450;-59
2022/07/04 00:29:15;;;;;;;8.63;3.90;;;32.00;1.00;;;;;;5156958;27;20058;-59
2022/07/04 00:31:41;;;;;;;5.65;4.30;;;32.00;1.00;;;;;;5154848;27;20026;-59
2022/07/04 00:34:07;;;;;;;4.90;4.50;;;31.80;1.00;;;;;;5156945;27;20456;-59
2022/07/04 00:36:32;;;;;;;5.65;3.97;;;31.80;1.00;;;;;;5155420;27;20031;-59
2022/07/04 00:38:58;;;;;;;4.03;3.63;;;31.90;1.00;;;;;;5156562;27;20106;-59
2022/07/04 00:41:24;;;;;;;3.95;3.50;;;32.10;1.00;;;;;;5154363;27;20096;-59
2022/07/04 00:44:06;;;;;;;4.30;3.63;;;31.90;1.00;;;;;;5156041;27;20034;-59
2022/07/04 00:46:33;;;;;;;5.70;4.05;;;31.70;1.00;;;;;;5154459;27;20034;-59
2022/07/04 00:48:59;;;;;;;3.97;3.45;;;31.60;1.00;;;;;;5156399;27;20023;-59
2022/07/04 00:51:25;;;;;;;4.07;3.70;;;31.60;1.00;;;;;;5155367;27;20116;-59
2022/07/04 00:53:53;;;;;;;3.28;2.97;;;31.80;1.00;;;;;;5156217;27;20488;-59
2022/07/04 00:56:20;;;;;;;4.63;2.97;;;31.60;1.00;;;;;;5155379;27;20483;-59
2022/07/04 00:58:45;;;;;;;3.35;3.10;;;31.60;1.00;;;;;;5156457;27;20030;-58
2022/07/04 01:01:11;;;;;;;3.78;3.13;;;31.80;1.00;;;;;;5154953;27;20464;-57
2022/07/04 01:03:37;;;;;;;4.57;3.47;;;31.50;1.00;;;;;;5155102;27;20080;-58
2022/07/04 01:06:03;;;;;;;4.20;3.38;;;31.80;1.00;;;;;;5154944;27;20486;-59
2022/07/04 01:08:28;;;;;;;4.57;3.13;;;31.70;1.00;;;;;;5156038;27;20027;-59
2022/07/04 01:10:54;;;;;;;4.95;3.47;;;31.80;1.00;;;;;;5153800;27;20022;-58
2022/07/04 01:13:23;;;;;;;3.67;3.38;;;31.60;1.00;;;;;;5155747;27;20055;-59
2022/07/04 01:15:50;;;;;;;4.13;3.75;;;31.70;1.00;;;;;;5154711;27;20057;-58
2022/07/04 01:18:17;;;;;;;5.03;3.58;;;31.60;1.00;;;;;;5149049;27;20031;-59
2022/07/04 01:20:43;;;;;;;3.78;3.33;;;31.70;1.00;;;;;;5145414;27;20030;-59
2022/07/04 01:23:09;;;;;;;5.22;3.53;;;31.70;1.00;;;;;;5140980;27;20026;-59
2022/07/04 01:25:35;;;;;;;4.45;3.55;;;31.60;1.00;;;;;;5141847;27;20027;-59
2022/07/04 01:28:01;;;;;;;3.40;3.10;;;31.50;1.00;;;;;;5154985;27;20525;-59
2022/07/04 01:30:27;;;;;;;3.65;3.35;;;31.60;1.00;;;;;;5153957;27;20381;-58
2022/07/04 01:32:54;;;;;;;4.90;3.25;;;31.80;1.00;;;;;;5151081;27;20030;-59
2022/07/04 01:35:20;;;;;;;3.45;3.25;;;31.50;1.00;;;;;;5152572;27;20426;-59
2022/07/04 01:37:46;;;;;;;4.00;3.30;;;31.70;1.00;;;;;;5138398;27;20015;-58
2022/07/04 01:40:12;;;;;;;4.25;3.65;;;31.60;1.00;;;;;;5153634;27;20034;-59
2022/07/04 01:42:39;;;;;;;3.72;3.33;;;31.50;1.00;;;;;;5153578;27;20023;-59
2022/07/04 01:45:05;;;;;;;6.90;3.50;;;31.40;1.00;;;;;;5154552;27;20372;-59
2022/07/04 01:47:31;;;;;;;5.35;3.33;;;31.50;1.00;;;;;;5150751;27;20535;-59
2022/07/04 01:49:57;;;;;;;3.70;3.05;;;31.50;1.00;;;;;;5151059;27;20058;-59
2022/07/04 01:52:22;;;;;;;3.25;3.05;;;31.20;1.00;;;;;;5147428;27;20057;-59
2022/07/04 01:54:48;;;;;;;4.10;3.30;;;31.30;1.00;;;;;;5146364;27;20544;-59
2022/07/04 01:57:13;;;;;;;5.40;3.45;;;31.20;1.00;;;;;;5147461;27;20094;-59
2022/07/04 02:02:24;;;;;;;3.35;3.00;;;31.50;1.00;;;;;;5140953;27;20078;-59
2022/07/04 02:04:50;;;;;;;5.25;3.13;;;31.10;1.00;;;;;;5154077;27;20042;-59
2022/07/04 02:07:16;;;;;;;3.17;2.88;;;31.10;1.00;;;;;;5152181;27;20061;-59
2022/07/04 02:09:41;;;;;;;4.60;3.10;;;31.20;1.00;;;;;;5154444;27;20399;-60
2022/07/04 02:14:52;;;;;;;4.45;2.92;;;31.20;1.00;;;;;;5134278;27;20131;-59
2022/07/04 02:17:18;;;;;;;3.13;2.88;;;31.00;1.00;;;;;;5151972;27;20055;-59
2022/07/04 02:19:43;;;;;;;5.32;3.20;;;31.10;1.00;;;;;;5153578;27;20037;-59
2022/07/04 02:22:09;;;;;;;2.85;2.70;;;31.30;1.00;;;;;;5153614;27;20030;-59
2022/07/04 02:24:35;;;;;;;2.95;2.75;;;31.00;1.00;;;;;;5153550;27;20520;-59
2022/07/04 02:27:01;;;;;;;3.67;2.70;;;31.20;1.00;;;;;;5153291;27;20027;-59
2022/07/04 02:29:27;;;;;;;3.25;2.85;;;31.10;1.00;;;;;;5154725;27;20019;-59
2022/07/04 02:31:52;;;;;;;3.42;2.92;;;31.20;1.00;;;;;;5149146;27;20528;-59
2022/07/04 02:34:18;;;;;;;3.67;2.78;;;31.10;1.00;;;;;;5154022;27;20110;-59
2022/07/04 02:36:44;;;;;;;2.97;2.78;;;31.30;1.00;;;;;;5147697;27;20035;-59
2022/07/04 02:39:09;;;;;;;3.50;2.75;;;31.10;1.00;;;;;;5149943;27;20022;-59
2022/07/04 02:41:35;;;;;;;4.22;2.95;;;30.80;1.00;;;;;;5152122;27;20041;-59
2022/07/04 02:44:01;;;;;;;2.78;2.58;;;31.00;1.00;;;;;;5152768;27;20019;-59
2022/07/04 02:46:27;;;;;;;3.95;2.80;;;30.90;1.00;;;;;;5152964;27;20027;-59
2022/07/04 02:48:53;;;;;;;3.25;3.05;;;31.00;1.00;;;;;;5151547;27;20027;-59
2022/07/04 02:51:18;;;;;;;4.35;3.03;;;31.10;1.00;;;;;;5152676;27;20113;-59
2022/07/04 02:53:44;;;;;;;2.50;2.30;;;31.00;1.00;;;;;;5148412;27;20031;-59
2022/07/04 02:56:09;;;;;;;3.20;2.60;;;30.80;1.00;;;;;;5148917;27;20058;-59
2022/07/04 02:58:35;;;;;;;3.97;2.70;;;30.90;1.00;;;;;;5141334;27;20420;-58
2022/07/04 03:01:01;;;;;;;2.63;2.30;;;30.80;1.00;;;;;;5153834;27;20068;-59
2022/07/04 03:03:27;;;;;;;2.88;2.55;;;30.90;1.00;;;;;;5152636;27;20045;-59
2022/07/04 03:05:53;;;;;;;2.70;2.50;;;30.80;1.00;;;;;;5154034;27;20025;-59
2022/07/04 03:08:19;;;;;;;2.58;2.38;;;30.60;1.00;;;;;;5152425;27;20027;-57
2022/07/04 03:10:44;;;;;;;2.90;2.60;;;30.70;1.00;;;;;;5153641;27;20025;-58
2022/07/04 03:13:10;;;;;;;4.05;2.38;;;30.90;1.00;;;;;;5153060;27;20047;-57
2022/07/04 03:15:36;;;;;;;3.25;2.22;;;30.70;1.00;;;;;;5138791;27;20538;-56
2022/07/04 03:18:01;;;;;;;4.55;2.72;;;30.70;1.00;;;;;;5145527;27;20023;-58
2022/07/04 03:20:27;;;;;;;2.60;2.40;;;30.60;1.00;;;;;;5145639;27;20071;-59
2022/07/04 03:22:54;;;;;;;3.67;2.55;;;30.90;1.00;;;;;;5133133;27;20112;-58
2022/07/04 03:25:20;;;;;;;2.20;2.05;;;30.70;1.00;;;;;;5138322;27;20027;-58
2022/07/04 03:27:46;;;;;;;2.85;2.10;;;30.90;1.00;;;;;;5149732;27;20034;-59
2022/07/04 03:30:12;;;;;;;3.25;2.38;;;30.90;1.00;;;;;;5136291;27;20034;-58
2022/07/04 03:32:38;;;;;;;3.17;2.40;;;31.00;1.00;;;;;;5150708;27;20421;-57
2022/07/04 03:35:03;;;;;;;3.70;2.50;;;31.10;1.00;;;;;;5145881;27;20117;-58
2022/07/04 03:37:29;;;;;;;2.50;2.30;;;30.70;1.00;;;;;;5139208;27;20019;-58
2022/07/04 03:39:55;;;;;;;2.85;2.38;;;30.70;1.00;;;;;;5152197;27;20565;-57
2022/07/04 03:42:20;;;;;;;3.03;1.90;;;30.60;1.00;;;;;;5153222;27;20026;-58
2022/07/04 03:44:46;;;;;;;2.58;2.10;;;30.60;1.00;;;;;;5151955;27;20019;-58
2022/07/04 03:47:11;;;;;;;2.47;2.25;;;30.70;1.00;;;;;;5141620;27;20027;-57
2022/07/04 03:49:37;;;;;;;4.63;2.40;;;30.50;1.00;;;;;;5149593;27;20437;-58
2022/07/04 03:52:03;;;;;;;2.95;2.40;;;30.70;1.00;;;;;;5152449;27;20046;-57
2022/07/04 03:54:29;;;;;;;2.60;2.40;;;30.60;1.00;;;;;;5137774;27;20463;-58
2022/07/04 03:56:55;;;;;;;1.95;1.85;;;30.50;1.00;;;;;;5152779;27;20456;-57
2022/07/04 03:59:20;;;;;;;2.60;2.00;;;30.50;1.00;;;;;;5152705;27;20380;-58
2022/07/04 04:01:46;;;;;;;2.88;2.20;;;30.60;1.00;;;;;;5152851;27;20019;-58
2022/07/04 04:06:56;;;;;;;3.13;2.38;;;30.90;1.00;;;;;;5148744;27;20041;-57
2022/07/04 04:09:24;;;;;;;2.50;2.30;;;30.60;1.00;;;;;;5147670;27;20031;-58
2022/07/04 04:11:53;;;;;;;2.30;2.05;;;30.80;1.00;;;;;;5157332;27;20023;-57
2022/07/04 04:14:19;;;;;;;2.00;1.90;;;30.50;1.00;;;;;;5151829;27;20046;-58
2022/07/04 04:16:44;;;;;;;2.30;2.10;;;30.60;1.00;;;;;;5149114;27;20023;-57
2022/07/04 04:19:11;;;;;;;2.13;2.00;;;30.60;1.00;;;;;;5155346;27;20027;-57
2022/07/04 04:21:37;;;;;;;2.60;2.20;;;30.60;1.00;;;;;;5155883;27;20113;-58
2022/07/04 04:24:03;;;;;;;3.88;2.13;;;30.70;1.00;;;;;;5151627;27;20031;-58
2022/07/04 04:26:29;;;;;;;2.83;2.33;;;30.60;1.00;;;;;;5156792;27;20483;-58
2022/07/04 04:28:55;;;;;;;2.50;2.30;;;30.60;1.00;;;;;;5155621;27;20041;-57
2022/07/04 04:31:21;;;;;;;2.90;2.33;;;30.40;1.00;;;;;;5156908;27;20023;-57
2022/07/04 04:33:47;;;;;;;3.80;2.53;;;30.40;1.00;;;;;;5145219;27;20049;-57
2022/07/04 04:36:13;;;;;;;3.53;2.30;;;30.50;1.00;;;;;;5155199;27;20014;-58
2022/07/04 04:38:38;;;;;;;2.13;1.92;;;30.50;1.00;;;;;;5153479;27;20395;-57
2022/07/04 04:41:04;;;;;;;3.55;2.30;;;30.70;1.00;;;;;;5156833;27;20080;-58
2022/07/04 04:43:30;;;;;;;2.92;2.58;;;30.60;1.00;;;;;;5155605;27;20027;-58
2022/07/04 04:45:55;;;;;;;4.80;2.13;;;30.50;1.00;;;;;;5155696;27;20031;-56
2022/07/04 04:48:21;;;;;;;2.35;2.15;;;30.50;1.00;;;;;;5145938;27;20035;-57
2022/07/04 04:50:46;;;;;;;3.13;2.40;;;30.50;1.00;;;;;;5155342;27;20433;-57
2022/07/04 04:53:12;;;;;;;3.55;2.40;;;30.50;1.00;;;;;;5154906;27;20114;-57
2022/07/04 04:55:38;;;;;;;2.55;2.35;;;30.30;1.00;;;;;;5155417;27;20030;-58
2022/07/04 04:58:04;;;;;;;2.35;2.15;;;30.50;1.00;;;;;;5154397;27;20481;-57
2022/07/04 05:00:30;;;;;;;2.60;2.40;;;30.50;1.00;;;;;;5156349;27;20026;-57
2022/07/04 05:02:55;;;;;;;5.93;2.55;;;30.50;1.00;;;;;;5154238;27;20033;-56
2022/07/04 05:05:21;;;;;;;3.15;2.55;;;30.60;1.00;;;;;;5148820;27;20015;-57
2022/07/04 05:07:46;;;;;;;2.63;2.42;;;30.50;1.00;;;;;;5152792;27;20101;-57
2022/07/04 05:10:12;;;;;;;3.42;2.45;;;30.70;1.00;;;;;;5153606;27;20440;-57
2022/07/04 05:12:38;;;;;;;2.47;2.28;;;30.50;1.00;;;;;;5148449;27;20507;-55
2022/07/04 05:15:04;;;;;;;3.75;2.50;;;30.70;1.00;;;;;;5154487;27;20027;-57
2022/07/04 05:17:29;;;;;;;4.03;2.63;;;30.70;1.00;;;;;;5152771;27;20061;-58
2022/07/04 05:19:55;;;;;;;2.53;2.33;;;30.70;1.00;;;;;;5155632;27;20109;-57
2022/07/04 05:22:21;;;;;;;3.25;2.55;;;30.50;1.00;;;;;;5154750;27;20075;-57
2022/07/04 05:24:46;;;;;;;2.38;2.10;;;30.60;1.00;;;;;;5155546;27;20025;-57
2022/07/04 05:27:12;;;;;;;6.15;2.70;;;30.50;1.00;;;;;;5154816;27;20107;-58
2022/07/04 05:29:38;;;;;;;3.25;2.40;;;30.40;1.00;;;;;;5153723;27;20055;-58
2022/07/04 05:32:05;;;;;;;3.75;2.28;;;30.40;1.00;;;;;;5151509;27;20046;-58
2022/07/04 05:34:30;;;;;;;5.53;2.92;;;30.70;1.00;;;;;;5155273;27;20027;-56
2022/07/04 05:36:56;;;;;;;3.42;2.25;;;30.50;1.00;;;;;;5154867;27;20091;-58
2022/07/04 05:39:22;;;;;;;3.28;2.20;;;30.60;1.00;;;;;;5155316;27;20071;-59
2022/07/04 05:41:47;;;;;;;6.53;2.53;;;30.50;1.00;;;;;;5144624;27;20019;-59
2022/07/04 05:44:13;;;;;;;4.57;2.30;;;30.60;1.00;;;;;;5155549;27;20532;-58
2022/07/04 05:46:39;;;;;;;3.22;2.60;;;30.60;1.00;;;;;;5151826;27;20101;-58
2022/07/04 05:49:04;;;;;;;2.92;2.55;;;30.60;1.00;;;;;;5154118;27;20102;-59
2022/07/04 05:51:30;;;;;;;3.70;2.53;;;30.70;1.00;;;;;;5137861;27;20027;-58
2022/07/04 05:53:56;;;;;;;3.75;2.90;;;30.50;1.00;;;;;;5155196;27;20030;-57
2022/07/04 05:56:21;;;;;;;4.63;2.72;;;30.40;1.00;;;;;;5154178;27;20042;-59
2022/07/04 05:58:47;;;;;;;3.65;2.80;;;30.60;1.00;;;;;;5155310;27;20087;-58
2022/07/04 06:01:13;;;;;;;8.20;3.20;;;30.60;1.00;;;;;;5152931;27;20035;-59
2022/07/04 06:03:39;;;;;;;5.20;3.15;;;30.50;1.00;;;;;;5155395;27;20022;-58
2022/07/04 06:06:04;;;;;;;8.27;3.53;;;30.50;1.00;;;;;;5150691;27;20027;-58
2022/07/04 06:08:31;;;;;;;8.68;2.97;;;30.30;1.00;;;;;;5154251;27;20049;-57
2022/07/04 06:10:56;;;;;;;6.32;2.80;;;30.40;1.00;;;;;;5154998;27;20117;-58
2022/07/04 06:13:22;;;;;;;4.25;2.75;;;30.20;1.00;;;;;;5153708;27;20135;-59
2022/07/04 06:15:48;;;;;;;6.72;2.95;;;30.10;1.00;;;;;;5153114;27;20030;-56
2022/07/04 06:18:15;;;;;;;7.68;3.28;;;30.10;1.00;;;;;;5154883;27;20034;-59
2022/07/04 06:20:40;;;;;;;13.00;3.13;;;29.80;1.00;;;;;;5151193;27;20022;-59
2022/07/04 06:23:07;;;;;;;10.63;4.00;;;29.70;1.00;;;;;;5154653;27;20564;-59
2022/07/04 06:25:33;;;;;;;5.70;3.47;;;27.70;18.00;;;;;;5143399;27;20034;-59
2022/07/04 06:27:59;;;;;;;8.77;3.10;;;27.30;25.40;;;;;;5152660;27;20042;-57
2022/07/04 06:30:25;;;;;;;6.47;3.70;;;26.70;27.80;;;;;;5152919;27;20195;-58
2022/07/04 06:32:56;;;;;;;9.60;4.30;;;26.70;30.50;;;;;;5145343;27;20033;-59
2022/07/04 06:38:10;;;;;;;9.75;3.85;;;26.90;99.90;;;;;;5138012;27;20502;-58
2022/07/04 06:40:37;;;;;;;7.13;4.43;;;27.40;99.90;;;;;;5152070;27;22171;-52
2022/07/04 06:43:03;;;;;;;7.05;5.20;;;27.00;99.90;;;;;;5145768;27;20395;-55
2022/07/04 06:45:29;;;;;;;8.55;5.50;;;26.90;99.90;;;;;;5151903;27;20143;-54
2022/07/04 06:47:55;;;;;;;8.10;4.95;;;26.70;99.90;;;;;;5154253;27;20352;-52
2022/07/04 06:50:21;;;;;;;7.95;4.40;;;26.20;99.90;;;;;;5143410;27;20018;-56
2022/07/04 06:52:47;;;;;;;8.20;4.57;;;26.40;99.90;;;;;;5153270;27;20468;-56
2022/07/04 06:55:13;;;;;;;7.45;4.30;;;26.30;99.90;;;;;;5153019;27;20503;-53
2022/07/04 06:57:38;;;;;;;5.63;4.43;;;26.10;99.90;;;;;;5152967;27;20046;-54
2022/07/04 07:00:06;;;;;;;5.68;3.90;;;26.50;99.90;;;;;;5153951;27;20460;-54
2022/07/04 07:02:34;;;;;;;8.00;3.97;;;26.30;99.90;;;;;;5141529;27;20015;-56
2022/07/04 07:05:00;;;;;;;7.60;3.63;;;26.30;99.90;;;;;;5146546;27;20113;-53
2022/07/04 07:07:27;;;;;;;11.48;4.85;;;26.30;99.90;;;;;;5133116;27;20500;-56
2022/07/04 07:09:52;;;;;;;7.28;4.50;;;26.30;99.90;;;;;;5131677;27;20027;-55
2022/07/04 07:12:18;;;;;;;10.77;3.95;;;26.30;99.90;;;;;;5145831;27;20188;-50
2022/07/04 07:14:44;;;;;;;7.90;3.90;;;26.40;99.90;;;;;;5153774;27;20027;-56
2022/07/04 07:17:10;;;;;;;5.88;3.53;;;26.10;99.90;;;;;;5151524;27;20018;-55
2022/07/04 07:19:35;;;;;;;7.82;3.63;;;26.50;99.90;;;;;;5153782;27;20033;-55
2022/07/04 07:22:01;;;;;;;8.40;3.83;;;26.60;99.90;;;;;;5152935;27;20120;-54
2022/07/04 07:24:30;;;;;;;4.95;4.00;;;26.40;99.90;;;;;;5151453;27;20023;-54
2022/07/04 07:26:55;;;;;;;6.47;3.40;;;26.30;99.90;;;;;;5152411;27;20018;-51
2022/07/04 07:29:21;;;;;;;8.82;3.92;;;26.50;99.90;;;;;;5152276;27;20348;-52
2022/07/04 07:31:46;;;;;;;8.25;3.42;;;26.60;99.90;;;;;;5138856;27;20485;-50
2022/07/04 07:34:12;;;;;;;6.97;3.70;;;26.60;99.90;;;;;;5151152;27;20026;-53
2022/07/04 07:36:38;;;;;;;4.63;3.53;;;26.40;99.90;;;;;;5153704;27;20414;-50
2022/07/04 07:39:03;;;;;;;6.25;3.72;;;26.50;99.90;;;;;;5153479;27;20062;-49
2022/07/04 07:41:29;;;;;;;6.90;4.03;;;26.70;99.90;;;;;;5152462;27;20023;-51
2022/07/04 07:43:55;;;;;;;7.38;4.25;;;26.50;99.90;;;;;;5149483;27;20023;-54
2022/07/04 07:46:20;;;;;;;11.95;3.80;;;26.80;99.90;;;;;;5140104;27;20062;-58
2022/07/04 07:48:46;;;;;;;6.20;3.33;;;27.00;99.90;;;;;;5146835;27;20050;-60
2022/07/04 07:51:13;;;;;;;9.75;3.50;;;27.10;99.90;;;;;;5139885;27;20031;-60
2022/07/04 07:53:39;;;;;;;3.85;3.00;;;27.30;34.30;;;;;;5132317;27;20066;-62
2022/07/04 07:56:05;;;;;;;7.07;3.40;;;27.80;23.60;;;;;;5144148;27;20560;-67
2022/07/04 07:58:31;;;;;;;11.32;3.65;;;27.90;17.50;;;;;;5143580;27;20023;-64
2022/07/04 08:00:56;;;;;;;5.78;3.53;;;28.10;15.50;;;;;;5144704;27;20045;-60
2022/07/04 08:06:07;;;;;;;5.30;4.35;;;28.40;11.50;;;;;;5151621;27;20045;-63
2022/07/04 08:08:33;;;;;;;7.45;4.18;;;28.30;11.20;;;;;;5153314;27;20019;-67
2022/07/04 08:10:58;;;;;;;5.22;3.83;;;28.60;8.90;;;;;;5149902;27;20038;-60
2022/07/04 08:13:24;;;;;;;4.65;3.40;;;28.80;9.90;;;;;;5147375;27;20039;-62
2022/07/04 08:15:50;;;;;;;5.40;4.20;;;28.80;8.00;;;;;;5151704;27;20038;-61
2022/07/04 08:18:17;;;;;;;8.20;3.67;;;28.80;5.70;;;;;;5151969;27;20056;-62
2022/07/04 08:20:42;;;;;;;10.43;4.68;;;28.90;5.50;;;;;;5142916;27;20030;-62
2022/07/04 08:23:08;;;;;;;5.65;3.60;;;29.10;3.40;;;;;;5152521;27;20019;-61
2022/07/04 08:25:33;;;;;;;5.05;4.15;;;29.10;1.00;;;;;;5149837;27;20026;-60
2022/07/04 08:27:59;;;;;;;6.60;4.35;;;29.40;1.00;;;;;;5150736;27;20023;-64
2022/07/04 08:30:25;;;;;;;7.10;3.90;;;29.60;1.00;;;;;;5146058;27;20034;-60
2022/07/04 08:32:50;;;;;;;5.35;4.03;;;29.60;1.00;;;;;;5146822;27;20035;-62
2022/07/04 08:35:16;;;;;;;4.32;3.92;;;29.70;1.00;;;;;;5146163;27;20031;-61
2022/07/04 08:37:42;;;;;;;4.38;3.88;;;29.60;1.00;;;;;;5144305;27;20019;-61
2022/07/04 08:40:08;;;;;;;5.78;4.07;;;29.80;1.00;;;;;;5145103;27;20152;-64
2022/07/04 08:42:38;;;;;;;4.90;3.63;;;29.60;1.00;;;;;;5139313;27;20101;-63
2022/07/04 08:45:06;;;;;;;7.22;4.05;;;29.50;1.00;;;;;;5138273;27;20025;-64
2022/07/04 08:47:38;;;;;;;4.63;3.58;;;29.70;1.00;;;;;;5153742;27;20413;-71
2022/07/04 08:50:12;;;;;;;6.25;3.92;;;29.70;1.00;;;;;;5155887;27;20033;-62
2022/07/04 08:52:42;;;;;;;9.30;3.58;;;30.00;1.00;;;;;;5150245;27;20083;-59
2022/07/04 09:00:43;;;;;;;4.78;3.58;;;30.40;1.00;;;;;;5155812;27;20128;-62
2022/07/04 09:03:10;;;;;;;3.72;3.17;;;30.50;1.00;;;;;;5156386;27;20046;-60
2022/07/04 09:05:35;;;;;;;4.32;3.72;;;30.20;1.00;;;;;;5155672;27;20029;-62
2022/07/04 09:08:03;;;;;;;8.43;4.20;;;30.50;1.00;;;;;;5154586;27;20026;-60
2022/07/04 09:10:30;;;;;;;5.15;3.80;;;30.30;1.00;;;;;;5155179;27;20030;-59
2022/07/04 09:12:57;;;;;;;4.57;4.05;;;30.60;1.00;;;;;;5156550;27;20069;-58
2022/07/04 09:15:22;;;;;;;4.47;3.72;;;30.50;1.00;;;;;;5155080;27;20121;-60
2022/07/04 09:17:49;;;;;;;6.47;3.80;;;30.40;1.00;;;;;;5156232;27;20066;-60
2022/07/04 09:20:17;;;;;;;5.28;3.53;;;30.40;1.00;;;;;;5154744;27;20022;-59
2022/07/04 09:22:45;;;;;;;6.60;3.80;;;30.60;1.00;;;;;;5156568;27;20015;-68
2022/07/04 09:25:14;;;;;;;4.05;3.47;;;30.50;1.00;;;;;;5153821;27;20100;-64
2022/07/04 09:27:47;;;;;;;5.40;3.67;;;30.80;1.00;;;;;;5143831;27;20017;-64
2022/07/04 09:30:18;;;;;;;4.55;3.65;;;30.90;1.00;;;;;;5154945;27;20053;-64
2022/07/04 09:32:53;;;;;;;6.88;4.32;;;30.60;1.00;;;;;;5147363;27;20019;-72
2022/07/04 09:35:21;;;;;;;6.97;4.03;;;30.90;1.00;;;;;;5149719;27;20034;-70
2022/07/04 09:37:49;;;;;;;8.45;4.35;;;30.90;1.00;;;;;;5155767;27;20068;-61
2022/07/04 09:40:22;;;;;;;4.97;3.78;;;31.10;1.00;;;;;;5154414;27;20027;-61
2022/07/04 09:42:48;;;;;;;6.05;3.65;;;31.10;1.00;;;;;;5150501;27;20124;-60
2022/07/04 09:45:13;;;;;;;8.73;3.58;;;31.20;1.00;;;;;;5144176;27;20022;-60
2022/07/04 09:47:40;;;;;;;6.35;3.05;;;31.50;1.00;;;;;;5156182;27;20025;-60
2022/07/04 09:50:09;;;;;;;3.78;3.47;;;31.60;1.00;;;;;;5155250;27;20136;-60
2022/07/04 09:52:50;;;;;;;4.18;3.78;;;31.90;1.00;;;;;;5133633;27;20449;-62
2022/07/04 09:55:31;;;;;;;3.97;3.28;;;31.90;1.00;;;;;;5154031;27;20034;-60
2022/07/04 09:58:03;;;;;;;6.68;2.90;;;31.90;1.00;;;;;;5135867;27;20051;-60
2022/07/04 10:00:31;;;;;;;3.90;2.92;;;32.10;1.00;;;;;;5153159;27;20038;-56
2022/07/04 10:03:20;;;;;;;6.47;3.92;;;32.00;1.00;;;;;;5154439;27;20019;-47
2022/07/04 10:05:47;;;;;;;4.53;3.20;;;32.50;1.00;;;;;;5142596;27;20031;-56
2022/07/04 10:08:12;;;;;;;9.13;3.03;;;32.80;1.00;;;;;;5139908;27;20408;-55
2022/07/04 10:10:39;;;;;;;4.60;3.13;;;32.90;1.00;;;;;;5145256;27;20141;-53
2022/07/04 10:13:10;;;;;;;5.97;3.42;;;33.10;1.00;;;;;;5143759;27;20046;-53
2022/07/04 10:15:40;;;;;;;3.50;3.17;;;33.10;1.00;;;;;;5149239;27;20506;-53
2022/07/04 10:18:08;;;;;;;3.78;3.45;;;32.90;1.00;;;;;;5143543;27;20034;-58
2022/07/04 10:20:34;;;;;;;4.15;3.65;;;33.60;1.00;;;;;;5148983;27;20018;-53
2022/07/04 10:23:01;;;;;;;3.50;3.20;;;33.80;1.00;;;;;;5154690;27;20023;-56
2022/07/04 10:25:27;;;;;;;6.13;3.70;;;34.00;1.00;;;;;;5151829;27;20049;-52
2022/07/04 10:27:53;;;;;;;6.32;4.07;;;33.80;1.00;;;;;;5150401;27;20015;-64
2022/07/04 10:30:27;;;;;;;7.38;3.80;;;34.00;1.00;;;;;;5154236;27;20025;-65
2022/07/04 10:32:56;;;;;;;4.00;3.55;;;34.20;1.00;;;;;;5132724;27;20499;-63
2022/07/04 10:36:11;;;;;;;3.97;3.65;;;34.40;1.00;;;;;;5145846;27;20077;-61
2022/07/04 10:38:51;;;;;;;6.15;4.15;;;34.50;1.00;;;;;;5112771;27;20031;-49
2022/07/04 10:41:20;;;;;;;5.35;4.57;;;33.80;1.00;;;;;;5140783;27;20101;-55
2022/07/04 10:44:09;;;;;;;4.35;4.05;;;33.40;1.00;;;;;;5154249;27;20138;-63
2022/07/04 10:46:44;;;;;;;4.50;4.10;;;33.30;1.00;;;;;;5143195;27;20371;-48
2022/07/04 10:49:15;;;;;;;5.00;3.75;;;33.30;1.00;;;;;;5154498;27;20101;-64
2022/07/04 10:51:50;;;;;;;4.60;4.05;;;33.40;1.00;;;;;;5146047;27;20102;-65
2022/07/04 10:54:20;;;;;;;4.10;3.70;;;33.30;1.00;;;;;;5148569;27;20042;-59
2022/07/04 10:56:48;;;;;;;4.55;4.13;;;33.70;1.00;;;;;;5152534;27;20411;-59
2022/07/04 10:59:25;;;;;;;4.05;3.72;;;33.60;1.00;;;;;;5154170;27;20468;-58
2022/07/04 11:02:06;;;;;;;5.85;4.30;;;33.50;1.00;;;;;;5142412;27;20058;-58
2022/07/04 11:04:53;;;;;;;4.78;3.65;;;33.90;1.00;;;;;;5147537;27;20050;-60
2022/07/04 11:07:22;;;;;;;4.00;3.70;;;33.50;1.00;;;;;;5152954;27;20023;-61
2022/07/04 11:10:21;;;;;;;5.18;3.85;;;34.00;1.00;;;;;;5139493;27;20042;-61
2022/07/04 11:12:53;;;;;;;4.90;3.50;;;34.00;1.00;;;;;;5139104;27;20043;-61
2022/07/04 11:15:40;;;;;;;5.10;3.33;;;34.20;1.00;;;;;;5153210;27;20033;-60
2022/07/04 11:18:11;;;;;;;4.43;4.03;;;34.40;1.00;;;;;;5139427;27;20429;-61
2022/07/04 11:20:41;;;;;;;4.22;3.92;;;34.60;1.00;;;;;;5152883;27;20113;-61
2022/07/04 11:23:11;;;;;;;5.63;4.10;;;34.60;1.00;;;;;;5131811;27;20500;-61
2022/07/04 11:25:38;;;;;;;4.88;3.58;;;34.10;1.00;;;;;;5136303;27;20033;-61
2022/07/04 11:28:19;;;;;;;4.75;4.32;;;36.40;1.00;;;;;;5152928;27;20386;-61
2022/07/04 11:30:52;;;;;;;4.82;3.70;;;38.30;1.00;;;;;;5153395;27;20083;-60
2022/07/04 11:33:20;;;;;;;4.60;3.85;;;37.70;1.00;;;;;;5140170;27;20038;-61
2022/07/04 11:36:01;;;;;;;4.45;4.07;;;36.00;1.00;;;;;;5151715;27;20091;-60
2022/07/04 11:38:46;;;;;;;4.15;3.60;;;35.40;1.00;;;;;;5131425;27;20039;-60
2022/07/04 11:46:41;;;;;;;4.68;4.15;;;35.80;1.00;;;;;;5141792;27;20065;-61
2022/07/04 11:49:11;;;;;;;4.60;4.20;;;35.50;1.00;;;;;;5152376;27;20072;-60
2022/07/04 11:51:45;;;;;;;4.03;3.75;;;35.20;1.00;;;;;;5152451;27;20133;-60
2022/07/04 11:54:11;;;;;;;4.50;4.10;;;34.90;1.00;;;;;;5153299;27;20031;-60
2022/07/04 11:56:37;;;;;;;4.25;3.90;;;35.10;1.00;;;;;;5151522;27;20030;-61
2022/07/04 11:59:11;;;;;;;5.95;4.03;;;35.60;1.00;;;;;;5141865;27;20047;-60
2022/07/04 12:01:37;;;;;;;5.82;4.20;;;35.70;1.00;;;;;;5147767;27;20119;-63
2022/07/04 12:04:32;;;;;;;4.63;3.95;;;35.90;1.00;;;;;;5152538;27;20051;-63
2022/07/04 12:07:12;;;;;;;7.00;4.10;;;35.80;1.00;;;;;;5136504;27;20043;-63
2022/07/04 12:09:37;;;;;;;4.47;4.07;;;36.00;1.00;;;;;;5142527;27;20014;-66
2022/07/04 12:12:04;;;;;;;5.00;4.22;;;36.00;1.00;;;;;;5142686;27;20046;-62
2022/07/04 12:14:29;;;;;;;6.60;4.00;;;36.20;1.00;;;;;;5144204;27;20035;-60
2022/07/04 12:17:12;;;;;;;5.35;4.32;;;35.80;1.00;;;;;;5136763;27;20458;-63
2022/07/04 12:19:38;;;;;;;4.57;4.18;;;35.60;1.00;;;;;;5135083;27;20030;-62
2022/07/04 12:22:03;;;;;;;4.68;4.28;;;35.40;1.00;;;;;;5143565;27;20027;-62
2022/07/04 12:24:42;;;;;;;5.00;4.32;;;35.60;1.00;;;;;;5152129;27;20027;-64
2022/07/04 12:27:19;;;;;;;4.43;4.03;;;35.90;1.00;;;;;;5150972;27;20031;-56
2022/07/04 12:29:49;;;;;;;5.60;4.22;;;36.20;1.00;;;;;;5147277;27;20110;-59
2022/07/04 12:32:15;;;;;;;5.63;4.55;;;36.10;1.00;;;;;;5145288;27;20505;-61
2022/07/04 12:34:41;;;;;;;4.93;4.53;;;36.10;1.00;;;;;;5145598;27;20027;-67
2022/07/04 12:37:09;;;;;;;6.40;5.25;;;36.20;1.00;;;;;;5135867;27;20091;-68
2022/07/04 12:39:37;;;;;;;5.85;4.75;;;36.50;1.00;;;;;;5154409;27;20392;-64
2022/07/04 12:42:11;;;;;;;6.95;4.90;;;36.10;1.00;;;;;;5155290;27;20071;-64
2022/07/04 12:44:38;;;;;;;6.70;4.95;;;36.80;1.00;;;;;;5154394;27;20122;-60
2022/07/04 12:47:05;;;;;;;4.80;4.35;;;36.60;1.00;;;;;;5147990;27;20045;-66
2022/07/04 12:49:32;;;;;;;6.50;4.95;;;36.90;1.00;;;;;;5151759;27;20070;-63
2022/07/04 12:52:10;;;;;;;9.45;4.85;;;37.10;1.00;;;;;;5147432;27;20014;-63
2022/07/04 12:54:36;;;;;;;5.80;4.55;;;36.90;1.00;;;;;;5150262;27;20384;-63
2022/07/04 12:57:11;;;;;;;7.70;4.97;;;36.90;1.00;;;;;;5140219;27;20022;-62
2022/07/04 12:59:36;;;;;;;6.35;4.75;;;36.90;1.00;;;;;;5155919;27;20340;-62
2022/07/04 13:02:02;;;;;;;5.50;4.93;;;37.20;1.00;;;;;;5150025;27;20031;-63
2022/07/04 13:04:28;;;;;;;7.35;4.70;;;37.00;1.00;;;;;;5154155;27;20079;-63
2022/07/04 13:06:54;;;;;;;5.45;4.50;;;36.80;1.00;;;;;;5147724;27;20027;-60
2022/07/04 13:09:21;;;;;;;6.65;4.57;;;37.00;1.00;;;;;;5145259;27;20404;-60
2022/07/04 13:14:31;;;;;;;6.07;5.13;;;37.50;1.00;;;;;;5136000;27;20050;-58
2022/07/04 13:16:57;;;;;;;4.60;4.30;;;37.70;1.00;;;;;;5139403;27;20110;-59
2022/07/04 13:19:22;;;;;;;5.35;4.80;;;37.80;1.00;;;;;;5146673;27;20106;-59
2022/07/04 13:21:48;;;;;;;5.63;4.78;;;37.70;1.00;;;;;;5149305;27;20399;-62
2022/07/04 13:24:14;;;;;;;6.40;5.00;;;38.10;1.00;;;;;;5153067;27;20111;-62